sensor_id;sensor_type;location;lat;lon;timestamp;temperature;humidity
17607;DHT22;8922;52.240;20.980;2022-11-20T00:01:16;-2.00;99.90
17607;DHT22;8922;52.240;20.980;2022-11-20T00:03:44;-2.10;99.90
17607;DHT22;8922;52.240;20.980;2022-11-20T00:06:14;-2.10;99.90
17607;DHT22;8922;52.240;20.980;2022-11-20T00:08:42;-2.10;99.90
17607;DHT22;8922;52.240;20.980;2022-11-20T00:11:10;-2.10;99.90
17607;DHT22;8922;52.240;20.980;2022-11-20T00:13:38;-2.10;99.90
17607;DHT22;8922;52.240;20.980;2022-11-20T00:16:06;-2.10;99.90
17607;DHT22;8922;52.240;20.980;2022-11-20T00:18:34;-2.10;99.90
17607;DHT22;8922;52.240;20.980;2022-11-20T00:21:02;-2.10;99.90
17607;DHT22;8922;52.240;20.980;2022-11-20T00:23:31;-2.10;99.90
17607;DHT22;8922;52.240;20.980;2022-11-20T00:26:01;-2.10;99.90
17607;DHT22;8922;52.240;20.980;2022-11-20T00:28:28;-2.20;99.90
17607;DHT22;8922;52.240;20.980;2022-11-20T00:31:00;-2.20;99.90
17607;DHT22;8922;52.240;20.980;2022-11-20T00:33:28;-2.10;99.90
17607;DHT22;8922;52.240;20.980;2022-11-20T00:35:59;-2.10;99.90
17607;DHT22;8922;52.240;20.980;2022-11-20T00:38:26;-2.20;99.90
17607;DHT22;8922;52.240;20.980;2022-11-20T00:40:56;-2.10;99.90
17607;DHT22;8922;52.240;20.980;2022-11-20T00:43:24;-2.10;99.90
17607;DHT22;8922;52.240;20.980;2022-11-20T00:45:55;-2.10;99.90
17607;DHT22;8922;52.240;20.980;2022-11-20T00:48:22;-2.00;99.90
17607;DHT22;8922;52.240;20.980;2022-11-20T00:50:49;-2.00;99.90
17607;DHT22;8922;52.240;20.980;2022-11-20T00:53:15;-2.10;99.90
17607;DHT22;8922;52.240;20.980;2022-11-20T00:55:42;-2.00;99.90
17607;DHT22;8922;52.240;20.980;2022-11-20T00:58:10;-2.00;99.90
17607;DHT22;8922;52.240;20.980;2022-11-20T01:00:37;-2.00;99.90
17607;DHT22;8922;52.240;20.980;2022-11-20T01:03:04;-2.00;99.90
17607;DHT22;8922;52.240;20.980;2022-11-20T01:05:34;-2.00;99.90
17607;DHT22;8922;52.240;20.980;2022-11-20T01:08:01;-2.00;99.90
17607;DHT22;8922;52.240;20.980;2022-11-20T01:10:28;-2.00;99.90
17607;DHT22;8922;52.240;20.980;2022-11-20T01:12:55;-1.90;99.90
17607;DHT22;8922;52.240;20.980;2022-11-20T01:15:37;-2.00;99.90
17607;DHT22;8922;52.240;20.980;2022-11-20T01:18:04;-2.00;99.90
17607;DHT22;8922;52.240;20.980;2022-11-20T01:20:34;-2.00;99.90
17607;DHT22;8922;52.240;20.980;2022-11-20T01:23:01;-2.10;99.90
17607;DHT22;8922;52.240;20.980;2022-11-20T01:25:28;-2.10;99.90
17607;DHT22;8922;52.240;20.980;2022-11-20T01:27:54;-2.10;99.90
17607;DHT22;8922;52.240;20.980;2022-11-20T01:30:21;-2.10;99.90
17607;DHT22;8922;52.240;20.980;2022-11-20T01:32:49;-2.10;99.90
17607;DHT22;8922;52.240;20.980;2022-11-20T01:35:16;-2.10;99.90
17607;DHT22;8922;52.240;20.980;2022-11-20T01:37:43;-2.10;99.90
17607;DHT22;8922;52.240;20.980;2022-11-20T01:40:11;-2.10;99.90
17607;DHT22;8922;52.240;20.980;2022-11-20T01:42:38;-2.10;99.90
17607;DHT22;8922;52.240;20.980;2022-11-20T01:45:46;-2.00;99.90
17607;DHT22;8922;52.240;20.980;2022-11-20T01:48:18;-2.00;99.90
17607;DHT22;8922;52.240;20.980;2022-11-20T01:50:46;-2.00;99.90
17607;DHT22;8922;52.240;20.980;2022-11-20T01:53:15;-2.10;99.90
17607;DHT22;8922;52.240;20.980;2022-11-20T01:55:48;-2.00;99.90
17607;DHT22;8922;52.240;20.980;2022-11-20T01:58:15;-2.00;99.90
17607;DHT22;8922;52.240;20.980;2022-11-20T02:00:43;-2.00;99.90
17607;DHT22;8922;52.240;20.980;2022-11-20T02:03:12;-2.00;99.90
17607;DHT22;8922;52.240;20.980;2022-11-20T02:05:45;-2.00;99.90
17607;DHT22;8922;52.240;20.980;2022-11-20T02:08:13;-1.90;99.90
17607;DHT22;8922;52.240;20.980;2022-11-20T02:10:40;-1.90;99.90
17607;DHT22;8922;52.240;20.980;2022-11-20T02:13:07;-1.90;99.90
17607;DHT22;8922;52.240;20.980;2022-11-20T02:15:52;-1.90;99.90
17607;DHT22;8922;52.240;20.980;2022-11-20T02:18:20;-1.90;99.90
17607;DHT22;8922;52.240;20.980;2022-11-20T02:20:52;-1.90;99.90
17607;DHT22;8922;52.240;20.980;2022-11-20T02:23:25;-1.90;99.90
17607;DHT22;8922;52.240;20.980;2022-11-20T02:25:57;-2.00;99.90
17607;DHT22;8922;52.240;20.980;2022-11-20T02:28:24;-2.00;99.90
17607;DHT22;8922;52.240;20.980;2022-11-20T02:30:51;-1.90;99.90
17607;DHT22;8922;52.240;20.980;2022-11-20T02:33:17;-1.90;99.90
17607;DHT22;8922;52.240;20.980;2022-11-20T02:35:46;-1.80;99.90
17607;DHT22;8922;52.240;20.980;2022-11-20T02:38:14;-1.90;99.90
17607;DHT22;8922;52.240;20.980;2022-11-20T02:40:41;-1.90;99.90
17607;DHT22;8922;52.240;20.980;2022-11-20T02:43:09;-1.90;99.90
17607;DHT22;8922;52.240;20.980;2022-11-20T02:45:37;-1.90;99.90
17607;DHT22;8922;52.240;20.980;2022-11-20T02:48:05;-1.90;99.90
17607;DHT22;8922;52.240;20.980;2022-11-20T02:50:32;-2.00;99.90
17607;DHT22;8922;52.240;20.980;2022-11-20T02:52:58;-2.00;99.90
17607;DHT22;8922;52.240;20.980;2022-11-20T02:55:25;-2.10;99.90
17607;DHT22;8922;52.240;20.980;2022-11-20T02:57:52;-2.10;99.90
17607;DHT22;8922;52.240;20.980;2022-11-20T03:00:20;-2.10;99.90
17607;DHT22;8922;52.240;20.980;2022-11-20T03:02:47;-2.10;99.90
17607;DHT22;8922;52.240;20.980;2022-11-20T03:05:14;-2.20;99.90
17607;DHT22;8922;52.240;20.980;2022-11-20T03:07:41;-2.20;99.90
17607;DHT22;8922;52.240;20.980;2022-11-20T03:10:09;-2.20;99.90
17607;DHT22;8922;52.240;20.980;2022-11-20T03:12:36;-2.20;99.90
17607;DHT22;8922;52.240;20.980;2022-11-20T03:15:04;-2.30;99.90
17607;DHT22;8922;52.240;20.980;2022-11-20T03:17:32;-2.30;99.90
17607;DHT22;8922;52.240;20.980;2022-11-20T03:20:00;-2.40;99.90
17607;DHT22;8922;52.240;20.980;2022-11-20T03:22:28;-2.40;99.90
17607;DHT22;8922;52.240;20.980;2022-11-20T03:24:55;-2.40;99.90
17607;DHT22;8922;52.240;20.980;2022-11-20T03:27:22;-2.40;99.90
17607;DHT22;8922;52.240;20.980;2022-11-20T03:29:48;-2.40;99.90
17607;DHT22;8922;52.240;20.980;2022-11-20T03:32:15;-2.40;99.90
17607;DHT22;8922;52.240;20.980;2022-11-20T03:34:43;-2.40;99.90
17607;DHT22;8922;52.240;20.980;2022-11-20T03:37:10;-2.40;99.90
17607;DHT22;8922;52.240;20.980;2022-11-20T03:39:37;-2.40;99.90
17607;DHT22;8922;52.240;20.980;2022-11-20T03:42:04;-2.40;99.90
17607;DHT22;8922;52.240;20.980;2022-11-20T03:44:51;-2.40;99.90
17607;DHT22;8922;52.240;20.980;2022-11-20T03:47:17;-2.50;99.90
17607;DHT22;8922;52.240;20.980;2022-11-20T03:49:46;-2.50;99.90
17607;DHT22;8922;52.240;20.980;2022-11-20T03:52:12;-2.50;99.90
17607;DHT22;8922;52.240;20.980;2022-11-20T03:54:39;-2.60;99.90
17607;DHT22;8922;52.240;20.980;2022-11-20T03:57:06;-2.60;99.90
17607;DHT22;8922;52.240;20.980;2022-11-20T03:59:33;-2.70;99.90
17607;DHT22;8922;52.240;20.980;2022-11-20T04:02:00;-2.70;99.90
17607;DHT22;8922;52.240;20.980;2022-11-20T04:04:26;-2.70;99.90
17607;DHT22;8922;52.240;20.980;2022-11-20T04:06:55;-2.70;99.90
17607;DHT22;8922;52.240;20.980;2022-11-20T04:09:21;-2.80;99.90
17607;DHT22;8922;52.240;20.980;2022-11-20T04:11:48;-2.80;99.90
17607;DHT22;8922;52.240;20.980;2022-11-20T04:14:16;-2.80;99.90
17607;DHT22;8922;52.240;20.980;2022-11-20T04:16:43;-2.80;99.90
17607;DHT22;8922;52.240;20.980;2022-11-20T04:19:12;-2.80;99.90
17607;DHT22;8922;52.240;20.980;2022-11-20T04:21:39;-2.80;99.90
17607;DHT22;8922;52.240;20.980;2022-11-20T04:24:08;-2.80;99.90
17607;DHT22;8922;52.240;20.980;2022-11-20T04:26:36;-2.80;99.90
17607;DHT22;8922;52.240;20.980;2022-11-20T04:29:03;-2.80;99.90
17607;DHT22;8922;52.240;20.980;2022-11-20T04:31:32;-2.80;99.90
17607;DHT22;8922;52.240;20.980;2022-11-20T04:34:00;-2.90;99.90
17607;DHT22;8922;52.240;20.980;2022-11-20T04:36:29;-2.80;99.90
17607;DHT22;8922;52.240;20.980;2022-11-20T04:38:57;-2.90;99.90
17607;DHT22;8922;52.240;20.980;2022-11-20T04:41:27;-2.90;99.90
17607;DHT22;8922;52.240;20.980;2022-11-20T04:43:56;-2.90;99.90
17607;DHT22;8922;52.240;20.980;2022-11-20T04:46:25;-2.90;99.90
17607;DHT22;8922;52.240;20.980;2022-11-20T04:48:52;-2.90;99.90
17607;DHT22;8922;52.240;20.980;2022-11-20T04:51:19;-2.80;99.90
17607;DHT22;8922;52.240;20.980;2022-11-20T04:53:46;-2.90;99.90
17607;DHT22;8922;52.240;20.980;2022-11-20T04:56:13;-2.90;99.90
17607;DHT22;8922;52.240;20.980;2022-11-20T04:58:41;-2.90;99.90
17607;DHT22;8922;52.240;20.980;2022-11-20T05:06:21;-2.80;99.90
17607;DHT22;8922;52.240;20.980;2022-11-20T05:11:23;-2.80;99.90
17607;DHT22;8922;52.240;20.980;2022-11-20T05:13:52;-2.80;99.90
17607;DHT22;8922;52.240;20.980;2022-11-20T05:24:03;-2.80;99.90
17607;DHT22;8922;52.240;20.980;2022-11-20T05:31:40;-2.80;99.90
17607;DHT22;8922;52.240;20.980;2022-11-20T05:34:07;-2.80;99.90
17607;DHT22;8922;52.240;20.980;2022-11-20T05:36:34;-2.90;99.90
17607;DHT22;8922;52.240;20.980;2022-11-20T05:39:00;-2.90;99.90
17607;DHT22;8922;52.240;20.980;2022-11-20T05:41:28;-2.90;99.90
17607;DHT22;8922;52.240;20.980;2022-11-20T05:43:56;-2.90;99.90
17607;DHT22;8922;52.240;20.980;2022-11-20T05:46:23;-2.90;99.90
17607;DHT22;8922;52.240;20.980;2022-11-20T05:48:51;-2.90;99.90
17607;DHT22;8922;52.240;20.980;2022-11-20T05:51:18;-2.90;99.90
17607;DHT22;8922;52.240;20.980;2022-11-20T05:53:45;-2.90;99.90
17607;DHT22;8922;52.240;20.980;2022-11-20T05:56:14;-3.00;99.90
17607;DHT22;8922;52.240;20.980;2022-11-20T05:58:41;-2.90;99.90
17607;DHT22;8922;52.240;20.980;2022-11-20T06:01:10;-2.90;99.90
17607;DHT22;8922;52.240;20.980;2022-11-20T06:03:38;-3.00;99.90
17607;DHT22;8922;52.240;20.980;2022-11-20T06:06:06;-3.00;99.90
17607;DHT22;8922;52.240;20.980;2022-11-20T06:08:33;-3.00;99.90
17607;DHT22;8922;52.240;20.980;2022-11-20T06:11:03;-3.00;99.90
17607;DHT22;8922;52.240;20.980;2022-11-20T06:13:31;-3.00;99.90
17607;DHT22;8922;52.240;20.980;2022-11-20T06:15:57;-3.00;99.90
17607;DHT22;8922;52.240;20.980;2022-11-20T06:18:26;-3.00;99.90
17607;DHT22;8922;52.240;20.980;2022-11-20T06:20:59;-3.10;99.90
17607;DHT22;8922;52.240;20.980;2022-11-20T06:23:29;-3.10;99.90
17607;DHT22;8922;52.240;20.980;2022-11-20T06:25:57;-3.10;99.90
17607;DHT22;8922;52.240;20.980;2022-11-20T06:28:24;-3.10;99.90
17607;DHT22;8922;52.240;20.980;2022-11-20T06:30:50;-3.10;99.90
17607;DHT22;8922;52.240;20.980;2022-11-20T06:33:17;-3.00;99.90
17607;DHT22;8922;52.240;20.980;2022-11-20T06:35:44;-3.00;99.90
17607;DHT22;8922;52.240;20.980;2022-11-20T06:38:11;-3.00;99.90
17607;DHT22;8922;52.240;20.980;2022-11-20T06:40:41;-3.00;99.90
17607;DHT22;8922;52.240;20.980;2022-11-20T06:43:08;-3.00;99.90
17607;DHT22;8922;52.240;20.980;2022-11-20T06:45:34;-3.00;99.90
17607;DHT22;8922;52.240;20.980;2022-11-20T06:48:01;-3.00;99.90
17607;DHT22;8922;52.240;20.980;2022-11-20T06:50:28;-2.90;99.90
17607;DHT22;8922;52.240;20.980;2022-11-20T06:52:55;-2.90;99.90
17607;DHT22;8922;52.240;20.980;2022-11-20T06:55:22;-2.80;99.90
17607;DHT22;8922;52.240;20.980;2022-11-20T06:57:50;-2.80;99.90
17607;DHT22;8922;52.240;20.980;2022-11-20T07:00:17;-2.70;99.90
17607;DHT22;8922;52.240;20.980;2022-11-20T07:02:44;-2.60;99.90
17607;DHT22;8922;52.240;20.980;2022-11-20T07:05:11;-2.50;99.90
17607;DHT22;8922;52.240;20.980;2022-11-20T07:07:38;-2.30;99.90
17607;DHT22;8922;52.240;20.980;2022-11-20T07:10:05;-2.10;99.90
17607;DHT22;8922;52.240;20.980;2022-11-20T07:12:32;-2.00;99.90
17607;DHT22;8922;52.240;20.980;2022-11-20T07:15:00;-1.90;99.90
17607;DHT22;8922;52.240;20.980;2022-11-20T07:17:27;-1.80;99.90
17607;DHT22;8922;52.240;20.980;2022-11-20T07:19:54;-1.70;99.90
17607;DHT22;8922;52.240;20.980;2022-11-20T07:22:21;-1.70;99.90
17607;DHT22;8922;52.240;20.980;2022-11-20T07:24:48;-1.60;99.90
17607;DHT22;8922;52.240;20.980;2022-11-20T07:27:15;-1.50;99.90
17607;DHT22;8922;52.240;20.980;2022-11-20T07:29:41;-1.40;99.90
17607;DHT22;8922;52.240;20.980;2022-11-20T07:32:09;-1.20;99.90
17607;DHT22;8922;52.240;20.980;2022-11-20T07:34:36;-1.10;99.90
17607;DHT22;8922;52.240;20.980;2022-11-20T07:37:03;-0.90;99.90
17607;DHT22;8922;52.240;20.980;2022-11-20T07:39:30;-0.70;99.90
17607;DHT22;8922;52.240;20.980;2022-11-20T07:41:57;-0.60;99.90
17607;DHT22;8922;52.240;20.980;2022-11-20T07:44:23;-0.50;99.90
17607;DHT22;8922;52.240;20.980;2022-11-20T07:46:50;-0.30;99.90
17607;DHT22;8922;52.240;20.980;2022-11-20T07:49:18;-0.30;99.90
17607;DHT22;8922;52.240;20.980;2022-11-20T07:51:45;-0.10;99.90
17607;DHT22;8922;52.240;20.980;2022-11-20T07:54:12;0.00;99.90
17607;DHT22;8922;52.240;20.980;2022-11-20T07:56:39;0.20;99.90
17607;DHT22;8922;52.240;20.980;2022-11-20T07:59:05;-0.30;99.90
17607;DHT22;8922;52.240;20.980;2022-11-20T08:01:32;0.30;99.90
17607;DHT22;8922;52.240;20.980;2022-11-20T08:03:59;0.40;99.90
17607;DHT22;8922;52.240;20.980;2022-11-20T08:06:27;0.50;99.90
17607;DHT22;8922;52.240;20.980;2022-11-20T08:08:54;0.60;99.90
17607;DHT22;8922;52.240;20.980;2022-11-20T08:11:21;0.80;99.90
17607;DHT22;8922;52.240;20.980;2022-11-20T08:14:05;0.90;99.90
17607;DHT22;8922;52.240;20.980;2022-11-20T08:16:42;1.00;99.90
17607;DHT22;8922;52.240;20.980;2022-11-20T08:19:10;1.10;99.90
17607;DHT22;8922;52.240;20.980;2022-11-20T08:21:38;1.30;99.90
17607;DHT22;8922;52.240;20.980;2022-11-20T08:24:06;1.50;99.90
17607;DHT22;8922;52.240;20.980;2022-11-20T08:26:34;1.60;99.90
17607;DHT22;8922;52.240;20.980;2022-11-20T08:29:04;1.90;99.90
17607;DHT22;8922;52.240;20.980;2022-11-20T08:31:31;2.40;99.90
17607;DHT22;8922;52.240;20.980;2022-11-20T08:33:58;3.20;99.90
17607;DHT22;8922;52.240;20.980;2022-11-20T08:36:25;3.80;99.90
17607;DHT22;8922;52.240;20.980;2022-11-20T08:38:55;4.60;99.90
17607;DHT22;8922;52.240;20.980;2022-11-20T08:41:22;6.10;99.90
17607;DHT22;8922;52.240;20.980;2022-11-20T08:43:54;8.50;99.90
17607;DHT22;8922;52.240;20.980;2022-11-20T08:46:22;10.80;92.50
17607;DHT22;8922;52.240;20.980;2022-11-20T08:48:50;12.90;75.80
17607;DHT22;8922;52.240;20.980;2022-11-20T08:51:17;14.50;61.90
17607;DHT22;8922;52.240;20.980;2022-11-20T08:53:44;15.90;55.70
17607;DHT22;8922;52.240;20.980;2022-11-20T08:56:13;17.00;52.20
17607;DHT22;8922;52.240;20.980;2022-11-20T08:58:40;18.30;48.40
17607;DHT22;8922;52.240;20.980;2022-11-20T09:01:07;19.00;44.70
17607;DHT22;8922;52.240;20.980;2022-11-20T09:03:33;19.60;43.40
17607;DHT22;8922;52.240;20.980;2022-11-20T09:06:04;20.30;41.80
17607;DHT22;8922;52.240;20.980;2022-11-20T09:08:31;20.60;39.90
17607;DHT22;8922;52.240;20.980;2022-11-20T09:10:59;20.90;39.70
17607;DHT22;8922;52.240;20.980;2022-11-20T09:13:28;21.10;39.30
17607;DHT22;8922;52.240;20.980;2022-11-20T09:15:56;21.60;38.20
17607;DHT22;8922;52.240;20.980;2022-11-20T09:18:24;22.20;37.00
17607;DHT22;8922;52.240;20.980;2022-11-20T09:20:51;23.00;36.50
17607;DHT22;8922;52.240;20.980;2022-11-20T09:23:18;23.00;34.90
17607;DHT22;8922;52.240;20.980;2022-11-20T09:25:44;22.80;34.50
17607;DHT22;8922;52.240;20.980;2022-11-20T09:28:11;22.40;33.40
17607;DHT22;8922;52.240;20.980;2022-11-20T09:30:40;21.70;33.60
17607;DHT22;8922;52.240;20.980;2022-11-20T09:33:07;21.00;34.70
17607;DHT22;8922;52.240;20.980;2022-11-20T09:35:34;20.50;34.70
17607;DHT22;8922;52.240;20.980;2022-11-20T09:38:05;20.40;34.90
17607;DHT22;8922;52.240;20.980;2022-11-20T09:40:34;20.80;35.80
17607;DHT22;8922;52.240;20.980;2022-11-20T09:43:05;21.30;35.10
17607;DHT22;8922;52.240;20.980;2022-11-20T09:45:44;22.30;35.10
17607;DHT22;8922;52.240;20.980;2022-11-20T09:48:25;23.40;33.40
17607;DHT22;8922;52.240;20.980;2022-11-20T09:50:57;24.40;32.60
17607;DHT22;8922;52.240;20.980;2022-11-20T09:53:34;25.10;32.10
17607;DHT22;8922;52.240;20.980;2022-11-20T09:56:03;25.90;31.10
17607;DHT22;8922;52.240;20.980;2022-11-20T09:58:34;26.30;30.70
17607;DHT22;8922;52.240;20.980;2022-11-20T10:01:10;27.00;30.00
17607;DHT22;8922;52.240;20.980;2022-11-20T10:03:44;27.30;29.50
17607;DHT22;8922;52.240;20.980;2022-11-20T10:06:15;26.80;29.20
17607;DHT22;8922;52.240;20.980;2022-11-20T10:08:45;26.00;29.50
17607;DHT22;8922;52.240;20.980;2022-11-20T10:11:20;25.70;30.00
17607;DHT22;8922;52.240;20.980;2022-11-20T10:13:55;25.90;29.60
17607;DHT22;8922;52.240;20.980;2022-11-20T10:16:30;25.90;29.60
17607;DHT22;8922;52.240;20.980;2022-11-20T10:19:07;26.00;29.90
17607;DHT22;8922;52.240;20.980;2022-11-20T10:21:42;25.90;29.10
17607;DHT22;8922;52.240;20.980;2022-11-20T10:24:27;25.50;29.20
17607;DHT22;8922;52.240;20.980;2022-11-20T10:27:06;25.90;29.70
17607;DHT22;8922;52.240;20.980;2022-11-20T10:29:42;26.80;28.90
17607;DHT22;8922;52.240;20.980;2022-11-20T10:32:15;27.00;28.50
17607;DHT22;8922;52.240;20.980;2022-11-20T10:34:48;27.50;28.60
17607;DHT22;8922;52.240;20.980;2022-11-20T10:37:19;27.60;28.30
17607;DHT22;8922;52.240;20.980;2022-11-20T10:39:53;27.80;28.00
17607;DHT22;8922;52.240;20.980;2022-11-20T10:42:26;27.70;28.00
17607;DHT22;8922;52.240;20.980;2022-11-20T10:45:02;27.70;28.10
17607;DHT22;8922;52.240;20.980;2022-11-20T10:47:32;28.20;27.50
17607;DHT22;8922;52.240;20.980;2022-11-20T10:50:03;28.30;27.30
17607;DHT22;8922;52.240;20.980;2022-11-20T10:52:37;28.30;27.70
17607;DHT22;8922;52.240;20.980;2022-11-20T10:55:18;28.20;27.20
17607;DHT22;8922;52.240;20.980;2022-11-20T10:57:53;28.20;27.40
17607;DHT22;8922;52.240;20.980;2022-11-20T11:00:22;28.20;27.50
17607;DHT22;8922;52.240;20.980;2022-11-20T11:02:52;28.60;27.50
17607;DHT22;8922;52.240;20.980;2022-11-20T11:05:32;28.70;27.10
17607;DHT22;8922;52.240;20.980;2022-11-20T11:08:00;28.70;27.20
17607;DHT22;8922;52.240;20.980;2022-11-20T11:10:35;28.50;27.10
17607;DHT22;8922;52.240;20.980;2022-11-20T11:13:03;28.70;26.80
17607;DHT22;8922;52.240;20.980;2022-11-20T11:15:37;28.40;26.90
17607;DHT22;8922;52.240;20.980;2022-11-20T11:18:09;28.50;26.60
17607;DHT22;8922;52.240;20.980;2022-11-20T11:20:36;28.20;26.80
17607;DHT22;8922;52.240;20.980;2022-11-20T11:23:03;28.40;27.10
17607;DHT22;8922;52.240;20.980;2022-11-20T11:25:32;28.50;26.90
17607;DHT22;8922;52.240;20.980;2022-11-20T11:28:01;29.00;26.70
17607;DHT22;8922;52.240;20.980;2022-11-20T11:30:30;29.40;25.90
17607;DHT22;8922;52.240;20.980;2022-11-20T11:33:12;29.40;26.20
17607;DHT22;8922;52.240;20.980;2022-11-20T11:35:46;29.80;26.10
17607;DHT22;8922;52.240;20.980;2022-11-20T11:38:16;29.80;25.40
17607;DHT22;8922;52.240;20.980;2022-11-20T11:40:46;29.10;25.40
17607;DHT22;8922;52.240;20.980;2022-11-20T11:43:20;27.30;25.10
17607;DHT22;8922;52.240;20.980;2022-11-20T11:46:20;24.80;26.20
17607;DHT22;8922;52.240;20.980;2022-11-20T11:48:56;21.80;27.50
17607;DHT22;8922;52.240;20.980;2022-11-20T11:51:26;19.40;29.30
17607;DHT22;8922;52.240;20.980;2022-11-20T11:53:57;17.40;31.00
17607;DHT22;8922;52.240;20.980;2022-11-20T11:56:25;15.70;33.10
17607;DHT22;8922;52.240;20.980;2022-11-20T11:58:56;14.00;35.10
17607;DHT22;8922;52.240;20.980;2022-11-20T12:01:29;12.60;36.90
17607;DHT22;8922;52.240;20.980;2022-11-20T12:04:04;11.30;38.80
17607;DHT22;8922;52.240;20.980;2022-11-20T12:06:36;10.20;40.30
17607;DHT22;8922;52.240;20.980;2022-11-20T12:09:08;9.40;43.20
17607;DHT22;8922;52.240;20.980;2022-11-20T12:11:42;8.70;45.20
17607;DHT22;8922;52.240;20.980;2022-11-20T12:14:15;8.10;46.20
17607;DHT22;8922;52.240;20.980;2022-11-20T12:16:44;7.70;47.10
17607;DHT22;8922;52.240;20.980;2022-11-20T12:19:14;7.20;48.10
17607;DHT22;8922;52.240;20.980;2022-11-20T12:21:49;6.80;49.30
17607;DHT22;8922;52.240;20.980;2022-11-20T12:24:39;6.40;50.40
17607;DHT22;8922;52.240;20.980;2022-11-20T12:27:28;6.00;51.70
17607;DHT22;8922;52.240;20.980;2022-11-20T12:30:01;5.60;52.60
17607;DHT22;8922;52.240;20.980;2022-11-20T12:32:44;5.30;53.60
17607;DHT22;8922;52.240;20.980;2022-11-20T12:35:29;5.00;54.50
17607;DHT22;8922;52.240;20.980;2022-11-20T12:38:14;4.80;55.20
17607;DHT22;8922;52.240;20.980;2022-11-20T12:40:46;4.60;55.80
17607;DHT22;8922;52.240;20.980;2022-11-20T12:43:19;4.40;56.60
17607;DHT22;8922;52.240;20.980;2022-11-20T12:46:19;4.20;57.50
17607;DHT22;8922;52.240;20.980;2022-11-20T12:52:07;3.90;58.50
17607;DHT22;8922;52.240;20.980;2022-11-20T12:54:58;3.80;59.10
17607;DHT22;8922;52.240;20.980;2022-11-20T12:57:32;3.70;59.40
17607;DHT22;8922;52.240;20.980;2022-11-20T13:00:18;3.60;60.10
17607;DHT22;8922;52.240;20.980;2022-11-20T13:03:03;3.60;60.50
17607;DHT22;8922;52.240;20.980;2022-11-20T13:05:37;3.50;61.00
17607;DHT22;8922;52.240;20.980;2022-11-20T13:08:18;3.60;61.40
17607;DHT22;8922;52.240;20.980;2022-11-20T13:10:49;3.60;61.70
17607;DHT22;8922;52.240;20.980;2022-11-20T13:13:21;3.50;62.20
17607;DHT22;8922;52.240;20.980;2022-11-20T13:15:53;3.40;62.60
17607;DHT22;8922;52.240;20.980;2022-11-20T13:18:22;3.40;63.80
17607;DHT22;8922;52.240;20.980;2022-11-20T13:20:49;3.30;63.30
17607;DHT22;8922;52.240;20.980;2022-11-20T13:23:25;3.20;63.90
17607;DHT22;8922;52.240;20.980;2022-11-20T13:26:04;3.10;64.20
17607;DHT22;8922;52.240;20.980;2022-11-20T13:28:32;3.00;64.90
17607;DHT22;8922;52.240;20.980;2022-11-20T13:30:59;2.90;65.70
17607;DHT22;8922;52.240;20.980;2022-11-20T13:33:30;2.80;66.90
17607;DHT22;8922;52.240;20.980;2022-11-20T13:35:59;2.70;68.30
17607;DHT22;8922;52.240;20.980;2022-11-20T13:38:46;2.50;69.20
17607;DHT22;8922;52.240;20.980;2022-11-20T13:41:23;2.40;70.90
17607;DHT22;8922;52.240;20.980;2022-11-20T13:44:05;2.10;72.10
17607;DHT22;8922;52.240;20.980;2022-11-20T13:46:37;2.20;73.90
17607;DHT22;8922;52.240;20.980;2022-11-20T13:49:10;2.10;75.50
17607;DHT22;8922;52.240;20.980;2022-11-20T13:51:42;2.10;77.20
17607;DHT22;8922;52.240;20.980;2022-11-20T13:54:43;2.10;79.10
17607;DHT22;8922;52.240;20.980;2022-11-20T14:00:15;2.00;84.10
17607;DHT22;8922;52.240;20.980;2022-11-20T14:02:43;2.00;86.60
17607;DHT22;8922;52.240;20.980;2022-11-20T14:05:19;1.90;88.70
17607;DHT22;8922;52.240;20.980;2022-11-20T14:07:47;1.90;90.60
17607;DHT22;8922;52.240;20.980;2022-11-20T14:10:24;1.80;91.60
17607;DHT22;8922;52.240;20.980;2022-11-20T14:12:52;2.30;93.30
17607;DHT22;8922;52.240;20.980;2022-11-20T14:15:27;1.70;94.10
17607;DHT22;8922;52.240;20.980;2022-11-20T14:17:54;1.60;95.30
17607;DHT22;8922;52.240;20.980;2022-11-20T14:20:24;1.50;96.60
17607;DHT22;8922;52.240;20.980;2022-11-20T14:22:53;1.50;98.00
17607;DHT22;8922;52.240;20.980;2022-11-20T14:25:21;1.40;99.20
17607;DHT22;8922;52.240;20.980;2022-11-20T14:27:54;1.30;99.90
17607;DHT22;8922;52.240;20.980;2022-11-20T14:30:23;1.30;99.90
17607;DHT22;8922;52.240;20.980;2022-11-20T14:32:53;1.20;99.90
17607;DHT22;8922;52.240;20.980;2022-11-20T14:35:24;1.10;99.90
17607;DHT22;8922;52.240;20.980;2022-11-20T14:37:51;1.10;99.90
17607;DHT22;8922;52.240;20.980;2022-11-20T14:40:26;1.00;99.90
17607;DHT22;8922;52.240;20.980;2022-11-20T14:42:55;1.00;99.90
17607;DHT22;8922;52.240;20.980;2022-11-20T14:45:24;0.90;99.90
17607;DHT22;8922;52.240;20.980;2022-11-20T14:47:52;0.90;99.90
17607;DHT22;8922;52.240;20.980;2022-11-20T14:50:22;0.90;99.90
17607;DHT22;8922;52.240;20.980;2022-11-20T14:52:51;0.80;99.90
17607;DHT22;8922;52.240;20.980;2022-11-20T14:55:31;0.80;99.90
17607;DHT22;8922;52.240;20.980;2022-11-20T14:58:02;0.70;99.90
17607;DHT22;8922;52.240;20.980;2022-11-20T15:00:31;0.70;99.90
17607;DHT22;8922;52.240;20.980;2022-11-20T15:02:59;0.70;99.90
17607;DHT22;8922;52.240;20.980;2022-11-20T15:05:45;0.70;99.90
17607;DHT22;8922;52.240;20.980;2022-11-20T15:08:12;0.70;99.90
17607;DHT22;8922;52.240;20.980;2022-11-20T15:10:45;0.70;99.90
17607;DHT22;8922;52.240;20.980;2022-11-20T15:13:17;0.60;99.90
17607;DHT22;8922;52.240;20.980;2022-11-20T15:15:47;0.60;99.90
17607;DHT22;8922;52.240;20.980;2022-11-20T15:18:16;0.60;99.90
17607;DHT22;8922;52.240;20.980;2022-11-20T15:20:45;0.50;99.90
17607;DHT22;8922;52.240;20.980;2022-11-20T15:23:13;0.50;99.90
17607;DHT22;8922;52.240;20.980;2022-11-20T15:25:40;0.50;99.90
17607;DHT22;8922;52.240;20.980;2022-11-20T15:28:16;0.70;99.90
17607;DHT22;8922;52.240;20.980;2022-11-20T15:30:43;0.40;99.90
17607;DHT22;8922;52.240;20.980;2022-11-20T15:33:10;0.40;99.90
17607;DHT22;8922;52.240;20.980;2022-11-20T15:35:37;0.40;99.90
17607;DHT22;8922;52.240;20.980;2022-11-20T15:38:08;0.30;99.90
17607;DHT22;8922;52.240;20.980;2022-11-20T15:40:35;0.40;99.90
17607;DHT22;8922;52.240;20.980;2022-11-20T15:43:02;1.00;99.90
17607;DHT22;8922;52.240;20.980;2022-11-20T15:45:34;0.20;99.90
17607;DHT22;8922;52.240;20.980;2022-11-20T15:48:08;0.10;99.90
17607;DHT22;8922;52.240;20.980;2022-11-20T15:50:37;0.10;99.90
17607;DHT22;8922;52.240;20.980;2022-11-20T15:53:08;0.00;99.90
17607;DHT22;8922;52.240;20.980;2022-11-20T15:55:36;-0.10;99.90
17607;DHT22;8922;52.240;20.980;2022-11-20T15:58:02;-0.10;99.90
17607;DHT22;8922;52.240;20.980;2022-11-20T16:00:31;-0.10;99.90
17607;DHT22;8922;52.240;20.980;2022-11-20T16:02:58;-0.20;99.90
17607;DHT22;8922;52.240;20.980;2022-11-20T16:05:28;-0.20;99.90
17607;DHT22;8922;52.240;20.980;2022-11-20T16:07:55;-0.20;99.90
17607;DHT22;8922;52.240;20.980;2022-11-20T16:10:22;-0.30;99.90
17607;DHT22;8922;52.240;20.980;2022-11-20T16:12:49;-0.40;99.90
17607;DHT22;8922;52.240;20.980;2022-11-20T16:15:35;-0.40;99.90
17607;DHT22;8922;52.240;20.980;2022-11-20T16:18:14;-0.50;99.90
17607;DHT22;8922;52.240;20.980;2022-11-20T16:20:41;-0.50;99.90